Time;durP1;ratioP1;P1;durP2;ratioP2;P2;SDS_P1;SDS_P2;PMS_P1;PMS_P2;Temp;Humidity;BMP_temperature;BMP_pressure;BME280_temperature;BME280_humidity;BME280_pressure;Samples;Min_cycle;Max_cycle;Signal;HPM_P1;HPM_P2
2022/10/20 00:01:07;;;;;;;0.00;0.00;;;9.20;99.90;;;;;;5047856;28;20029;-77
2022/10/20 00:03:45;;;;;;;0.00;0.00;;;9.20;99.90;;;;;;5047047;28;20461;-76
2022/10/20 00:06:27;;;;;;;0.00;0.00;;;9.10;99.90;;;;;;5047843;28;20059;-77
2022/10/20 00:09:03;;;;;;;0.00;0.00;;;9.10;99.90;;;;;;5041552;28;20497;-77
2022/10/20 00:11:30;;;;;;;0.00;0.00;;;9.00;99.90;;;;;;5045578;28;20031;-77
2022/10/20 00:13:59;;;;;;;0.10;0.10;;;9.00;99.90;;;;;;5047581;28;20023;-77
2022/10/20 00:16:27;;;;;;;0.00;0.00;;;9.00;99.90;;;;;;5044495;28;20094;-77
2022/10/20 00:18:58;;;;;;;0.00;0.00;;;9.00;99.90;;;;;;5050143;28;20040;-77
2022/10/20 00:21:27;;;;;;;0.00;0.00;;;9.00;99.90;;;;;;5047782;28;20110;-77
2022/10/20 00:23:53;;;;;;;0.00;0.00;;;9.00;99.90;;;;;;5045946;28;20114;-77
2022/10/20 00:26:25;;;;;;;0.00;0.00;;;9.10;99.90;;;;;;5043216;28;20028;-77
2022/10/20 00:28:51;;;;;;;0.00;0.00;;;9.10;99.90;;;;;;5044492;28;20030;-77
2022/10/20 00:31:21;;;;;;;0.00;0.00;;;9.10;99.90;;;;;;5040520;28;20037;-77
2022/10/20 00:33:48;;;;;;;0.00;0.00;;;9.10;99.90;;;;;;5047655;28;20100;-77
2022/10/20 00:36:16;;;;;;;;;;;9.10;99.90;;;;;;5046044;28;20388;-77
2022/10/20 00:38:43;;;;;;;0.00;0.00;;;9.00;99.90;;;;;;5040716;28;20376;-77
2022/10/20 00:41:12;;;;;;;0.00;0.00;;;9.00;99.90;;;;;;5027162;28;20029;-77
2022/10/20 00:43:46;;;;;;;0.00;0.00;;;9.00;99.90;;;;;;5037989;28;20067;-76
2022/10/20 00:46:22;;;;;;;0.00;0.00;;;8.90;99.90;;;;;;5046147;28;20059;-77
2022/10/20 00:48:52;;;;;;;0.00;0.00;;;8.90;99.90;;;;;;5049094;28;21328;-76
2022/10/20 00:51:27;;;;;;;0.00;0.00;;;8.80;99.90;;;;;;5046860;28;20247;-77
2022/10/20 00:53:58;;;;;;;0.00;0.00;;;8.90;99.90;;;;;;5046991;28;20120;-77
2022/10/20 00:56:28;;;;;;;0.00;0.00;;;8.90;99.90;;;;;;5043798;28;20118;-77
2022/10/20 00:58:54;;;;;;;0.00;0.00;;;8.90;99.90;;;;;;5044564;28;20848;-77
2022/10/20 01:01:22;;;;;;;0.00;0.00;;;8.80;99.90;;;;;;5039813;28;20104;-76
2022/10/20 01:03:52;;;;;;;0.00;0.00;;;8.80;99.90;;;;;;5049066;28;20067;-76
2022/10/20 01:06:22;;;;;;;0.00;0.00;;;8.80;99.90;;;;;;5047589;28;20028;-76
2022/10/20 01:08:50;;;;;;;0.00;0.00;;;8.80;99.90;;;;;;5041576;28;20082;-77
2022/10/20 01:11:18;;;;;;;0.00;0.00;;;8.80;99.90;;;;;;5047011;28;20052;-77
2022/10/20 01:14:09;;;;;;;0.00;0.00;;;8.90;99.90;;;;;;5045876;28;20032;-76
2022/10/20 01:16:51;;;;;;;0.00;0.00;;;8.80;99.90;;;;;;5044225;28;20043;-76
2022/10/20 01:20:01;;;;;;;0.00;0.00;;;8.90;99.90;;;;;;5040915;28;20102;-77
2022/10/20 01:22:56;;;;;;;0.00;0.00;;;8.80;99.90;;;;;;5045392;28;20029;-77
2022/10/20 01:25:35;;;;;;;0.00;0.00;;;8.80;99.90;;;;;;5025494;28;21648;-77
2022/10/20 01:28:36;;;;;;;0.00;0.00;;;8.80;99.90;;;;;;5046375;28;20082;-77
2022/10/20 01:31:25;;;;;;;0.00;0.00;;;8.70;99.90;;;;;;4951387;28;20047;-76
2022/10/20 01:34:30;;;;;;;0.00;0.00;;;8.70;99.90;;;;;;4941114;28;20651;-78
2022/10/20 01:37:16;;;;;;;0.00;0.00;;;8.70;99.90;;;;;;4924130;28;20126;-77
2022/10/20 01:40:13;;;;;;;0.00;0.00;;;8.70;99.90;;;;;;4958395;28;20027;-77
2022/10/20 01:42:42;;;;;;;0.00;0.00;;;8.70;99.90;;;;;;4990713;28;20033;-77
2022/10/20 01:45:08;;;;;;;0.00;0.00;;;8.70;99.90;;;;;;5039158;28;20111;-77
2022/10/20 01:47:35;;;;;;;0.00;0.00;;;8.60;99.90;;;;;;5047399;28;20025;-76
2022/10/20 01:50:02;;;;;;;;;;;8.60;99.90;;;;;;5043714;28;20025;-78
2022/10/20 01:52:39;;;;;;;0.00;0.00;;;8.50;99.90;;;;;;5043371;28;19912;-77
2022/10/20 01:55:16;;;;;;;0.00;0.00;;;8.50;99.90;;;;;;5034501;28;20024;-76
2022/10/20 01:58:09;;;;;;;0.00;0.00;;;8.50;99.90;;;;;;5035634;28;20021;-77
2022/10/20 02:00:38;;;;;;;0.00;0.00;;;8.50;99.90;;;;;;5045199;28;20021;-78
2022/10/20 02:03:40;;;;;;;0.00;0.00;;;8.50;99.90;;;;;;5029583;28;20021;-76
2022/10/20 02:06:36;;;;;;;0.00;0.00;;;8.50;99.90;;;;;;5041544;28;20021;-77
2022/10/20 02:09:11;;;;;;;0.00;0.00;;;8.50;99.90;;;;;;5032039;28;20026;-77
2022/10/20 02:11:50;;;;;;;0.00;0.00;;;8.50;99.90;;;;;;5032139;28;20024;-76
2022/10/20 02:14:19;;;;;;;0.00;0.00;;;8.50;99.90;;;;;;5046978;28;20021;-77
2022/10/20 02:16:51;;;;;;;0.00;0.00;;;8.50;99.90;;;;;;5041433;28;20470;-76
2022/10/20 02:19:21;;;;;;;0.00;0.00;;;8.40;99.90;;;;;;5030337;28;20025;-76
2022/10/20 02:21:48;;;;;;;0.00;0.00;;;8.30;99.90;;;;;;5045103;28;20020;-77
2022/10/20 02:24:17;;;;;;;0.00;0.00;;;8.40;99.90;;;;;;5041208;28;20409;-77
2022/10/20 02:26:50;;;;;;;0.20;0.20;;;8.40;99.90;;;;;;5044973;28;20036;-77
2022/10/20 02:29:23;;;;;;;0.00;0.00;;;8.30;99.90;;;;;;5049181;28;20017;-77
2022/10/20 02:31:54;;;;;;;0.00;0.00;;;8.30;99.90;;;;;;5045737;28;20767;-77
2022/10/20 02:34:25;;;;;;;0.00;0.00;;;8.30;99.90;;;;;;5037325;28;20044;-78
2022/10/20 02:36:57;;;;;;;0.00;0.00;;;8.40;99.90;;;;;;5045674;28;20194;-77
2022/10/20 02:39:23;;;;;;;0.00;0.00;;;8.30;99.90;;;;;;5048839;28;20033;-77
2022/10/20 02:41:49;;;;;;;0.00;0.00;;;8.30;99.90;;;;;;5045926;28;20024;-77
2022/10/20 02:44:15;;;;;;;0.00;0.00;;;8.30;99.90;;;;;;5052155;28;20021;-77
2022/10/20 02:46:43;;;;;;;0.00;0.00;;;8.30;99.90;;;;;;5041675;28;20597;-78
2022/10/20 02:49:11;;;;;;;0.00;0.00;;;8.30;99.90;;;;;;5048336;28;20103;-77
2022/10/20 02:51:37;;;;;;;0.00;0.00;;;8.30;99.90;;;;;;5048188;28;20024;-77
2022/10/20 02:54:03;;;;;;;0.00;0.00;;;8.30;99.90;;;;;;5044315;28;20040;-77
2022/10/20 02:56:32;;;;;;;;;;;8.10;99.90;;;;;;5045583;28;20056;-78
2022/10/20 02:59:18;;;;;;;0.00;0.00;;;8.30;99.90;;;;;;5045544;28;19912;-77
2022/10/20 03:01:51;;;;;;;0.00;0.00;;;8.30;99.90;;;;;;5044655;28;20488;-77
2022/10/20 03:04:21;;;;;;;0.00;0.00;;;8.40;99.90;;;;;;5035078;28;20123;-77
2022/10/20 03:06:46;;;;;;;0.00;0.00;;;8.30;99.90;;;;;;5030474;28;20037;-77
2022/10/20 03:09:12;;;;;;;0.00;0.00;;;8.30;99.90;;;;;;5045621;28;20028;-78
2022/10/20 03:11:38;;;;;;;0.00;0.00;;;8.30;99.90;;;;;;5038045;28;20023;-77
2022/10/20 03:14:05;;;;;;;0.00;0.00;;;8.30;99.90;;;;;;5051108;28;20077;-77
2022/10/20 03:16:33;;;;;;;;;;;8.30;99.90;;;;;;5047371;28;20020;-77
2022/10/20 03:19:01;;;;;;;0.00;0.00;;;8.20;99.90;;;;;;5048751;28;19919;-77
2022/10/20 03:21:33;;;;;;;0.00;0.00;;;8.20;99.90;;;;;;5045293;28;20056;-77
2022/10/20 03:24:03;;;;;;;0.00;0.00;;;8.20;99.90;;;;;;5038208;28;20775;-78
2022/10/20 03:26:31;;;;;;;0.00;0.00;;;8.20;99.90;;;;;;5053459;28;20077;-77
2022/10/20 03:28:58;;;;;;;0.00;0.00;;;8.20;99.90;;;;;;5049233;28;20025;-77
2022/10/20 03:31:25;;;;;;;;;;;8.20;99.90;;;;;;5045346;28;20028;-77
2022/10/20 03:33:52;;;;;;;0.00;0.00;;;8.20;99.90;;;;;;5035930;28;20572;-77
2022/10/20 03:36:21;;;;;;;0.00;0.00;;;8.10;99.90;;;;;;5050169;28;20024;-77
2022/10/20 03:38:52;;;;;;;0.00;0.00;;;8.20;99.90;;;;;;5043954;28;20431;-77
2022/10/20 03:41:18;;;;;;;0.00;0.00;;;8.10;99.90;;;;;;5049982;28;20024;-77
2022/10/20 03:43:44;;;;;;;0.00;0.00;;;8.10;99.90;;;;;;5042740;28;20108;-77
2022/10/20 03:46:13;;;;;;;0.00;0.00;;;8.10;99.90;;;;;;5047003;28;20465;-77
2022/10/20 03:48:40;;;;;;;0.00;0.00;;;8.10;99.90;;;;;;5038087;28;20031;-77
2022/10/20 03:51:12;;;;;;;;;;;8.00;99.90;;;;;;5052213;28;20020;-77
2022/10/20 03:53:38;;;;;;;0.00;0.00;;;8.00;99.90;;;;;;5052206;28;19947;-77
2022/10/20 03:56:06;;;;;;;;;;;8.00;99.90;;;;;;5042591;28;20120;-77
2022/10/20 03:58:37;;;;;;;0.00;0.00;;;8.00;99.90;;;;;;5044931;28;19908;-77
2022/10/20 04:01:18;;;;;;;0.00;0.00;;;7.90;99.90;;;;;;5044249;28;20021;-77
2022/10/20 04:03:45;;;;;;;0.00;0.00;;;7.80;99.90;;;;;;5048786;28;20096;-77
2022/10/20 04:06:14;;;;;;;0.00;0.00;;;7.80;99.90;;;;;;5030423;28;20025;-77
2022/10/20 04:08:40;;;;;;;0.00;0.00;;;7.80;99.90;;;;;;5045365;28;20037;-78
2022/10/20 04:11:07;;;;;;;0.00;0.00;;;7.80;99.90;;;;;;5044147;28;20031;-78
2022/10/20 04:13:33;;;;;;;;;;;7.70;99.90;;;;;;5022574;28;20104;-76
2022/10/20 04:15:58;;;;;;;0.00;0.00;;;7.70;99.90;;;;;;5051809;28;20003;-77
2022/10/20 04:18:27;;;;;;;0.00;0.00;;;7.70;99.90;;;;;;5050205;28;20032;-77
2022/10/20 04:20:53;;;;;;;0.00;0.00;;;7.60;99.90;;;;;;5042370;28;20029;-77
2022/10/20 04:23:20;;;;;;;0.00;0.00;;;7.60;99.90;;;;;;5043804;28;20017;-77
2022/10/20 04:25:47;;;;;;;0.00;0.00;;;7.60;99.90;;;;;;5042181;28;20024;-77
2022/10/20 04:28:18;;;;;;;0.00;0.00;;;7.60;99.90;;;;;;5053036;28;20017;-78
2022/10/20 04:30:45;;;;;;;0.00;0.00;;;7.60;99.90;;;;;;5045341;28;20083;-78
2022/10/20 04:33:12;;;;;;;0.00;0.00;;;7.60;99.90;;;;;;5050039;28;20013;-79
2022/10/20 04:35:46;;;;;;;0.00;0.00;;;7.60;99.90;;;;;;5037581;28;20071;-77
2022/10/20 04:38:12;;;;;;;0.00;0.00;;;7.50;99.90;;;;;;5045467;28;20029;-78
2022/10/20 04:40:38;;;;;;;0.00;0.00;;;7.60;99.90;;;;;;5046057;28;20029;-77
2022/10/20 04:43:05;;;;;;;0.00;0.00;;;7.50;99.90;;;;;;5051935;28;20029;-78
2022/10/20 04:45:32;;;;;;;0.00;0.00;;;7.60;99.90;;;;;;5044260;28;20035;-75
2022/10/20 04:48:05;;;;;;;0.00;0.00;;;7.50;99.90;;;;;;5052019;28;21273;-77
2022/10/20 04:50:38;;;;;;;0.00;0.00;;;7.50;99.90;;;;;;5028100;28;20542;-77
2022/10/20 04:53:22;;;;;;;0.00;0.00;;;7.40;99.90;;;;;;5041502;28;20454;-77
2022/10/20 04:55:59;;;;;;;0.00;0.00;;;7.40;99.90;;;;;;5044976;28;20025;-78
2022/10/20 04:58:25;;;;;;;0.00;0.00;;;7.40;99.90;;;;;;5031265;28;20070;-77
2022/10/20 05:01:03;;;;;;;0.00;0.00;;;7.40;99.90;;;;;;5046062;28;20060;-76
2022/10/20 05:03:43;;;;;;;0.00;0.00;;;7.30;99.90;;;;;;5037886;28;20036;-77
2022/10/20 05:06:23;;;;;;;0.00;0.00;;;7.30;99.90;;;;;;5048547;28;20016;-76
2022/10/20 05:08:53;;;;;;;0.20;0.10;;;7.30;99.90;;;;;;5044090;28;20031;-77
2022/10/20 05:11:27;;;;;;;0.00;0.00;;;7.20;99.90;;;;;;5044942;28;20025;-77
2022/10/20 05:13:57;;;;;;;0.00;0.00;;;7.30;99.90;;;;;;5046785;28;20122;-77
2022/10/20 05:16:25;;;;;;;0.00;0.00;;;7.20;99.90;;;;;;5044690;28;21483;-77
2022/10/20 05:18:53;;;;;;;0.00;0.00;;;7.20;99.90;;;;;;5039070;28;20221;-77
2022/10/20 05:21:30;;;;;;;0.00;0.00;;;7.20;99.90;;;;;;5051316;28;20034;-77
2022/10/20 05:24:03;;;;;;;;;;;7.20;99.90;;;;;;5042076;28;20079;-78
2022/10/20 05:26:33;;;;;;;0.00;0.00;;;7.20;99.90;;;;;;5045121;28;19912;-78
2022/10/20 05:29:04;;;;;;;0.00;0.00;;;7.20;99.90;;;;;;5046338;28;20033;-78
2022/10/20 05:31:30;;;;;;;0.00;0.00;;;7.20;99.90;;;;;;5044222;28;20028;-76
2022/10/20 05:34:00;;;;;;;0.00;0.00;;;7.20;99.90;;;;;;5027478;28;20347;-77
2022/10/20 05:36:26;;;;;;;0.22;0.22;;;7.20;99.90;;;;;;5041018;28;20359;-78
2022/10/20 05:38:54;;;;;;;0.00;0.00;;;7.30;99.90;;;;;;5043488;28;20123;-77
2022/10/20 05:41:29;;;;;;;0.00;0.00;;;7.30;99.90;;;;;;5046851;28;20102;-78
2022/10/20 05:44:01;;;;;;;0.00;0.00;;;7.40;99.90;;;;;;5043941;28;20032;-78
2022/10/20 05:46:32;;;;;;;0.52;0.20;;;7.50;99.90;;;;;;5049282;28;20118;-78
2022/10/20 05:49:00;;;;;;;0.00;0.00;;;7.70;99.90;;;;;;5043176;28;20033;-77
2022/10/20 05:51:30;;;;;;;0.00;0.00;;;8.20;99.90;;;;;;5039657;28;20025;-77
2022/10/20 05:53:58;;;;;;;0.00;0.00;;;8.70;99.90;;;;;;5046214;28;20037;-78
2022/10/20 05:56:29;;;;;;;0.00;0.00;;;8.90;99.90;;;;;;5027063;28;20040;-78
2022/10/20 05:58:57;;;;;;;0.00;0.00;;;9.30;99.90;;;;;;5045867;28;20112;-78
2022/10/20 06:01:49;;;;;;;0.00;0.00;;;10.00;99.90;;;;;;5028354;28;20080;-78
2022/10/20 06:04:23;;;;;;;0.03;0.03;;;10.90;99.90;;;;;;5054865;28;20085;-77
2022/10/20 06:06:50;;;;;;;0.00;0.00;;;11.70;99.90;;;;;;5044687;28;20024;-78
2022/10/20 06:09:23;;;;;;;0.00;0.00;;;12.20;99.90;;;;;;5026744;28;20497;-77
2022/10/20 06:11:55;;;;;;;0.00;0.00;;;12.70;99.90;;;;;;5041119;28;20516;-78
2022/10/20 06:14:22;;;;;;;0.00;0.00;;;13.10;99.90;;;;;;5046152;28;20021;-79
2022/10/20 06:16:52;;;;;;;0.00;0.00;;;13.60;99.90;;;;;;5046351;28;20096;-78
2022/10/20 06:19:21;;;;;;;0.00;0.00;;;13.70;99.90;;;;;;5054409;28;20023;-78
2022/10/20 06:21:47;;;;;;;0.00;0.00;;;13.80;99.90;;;;;;5041868;28;20481;-78
2022/10/20 06:24:13;;;;;;;0.95;0.17;;;14.00;99.90;;;;;;5030387;28;20029;-78
2022/10/20 06:26:41;;;;;;;0.00;0.00;;;14.50;99.90;;;;;;5045595;28;20508;-79
2022/10/20 06:29:10;;;;;;;0.00;0.00;;;14.40;99.90;;;;;;5043956;28;20056;-78
2022/10/20 06:31:45;;;;;;;0.00;0.00;;;14.60;99.90;;;;;;5044624;28;20455;-79
2022/10/20 06:34:21;;;;;;;0.00;0.00;;;15.20;98.80;;;;;;5050826;28;20044;-79
2022/10/20 06:36:48;;;;;;;0.00;0.00;;;15.60;97.50;;;;;;5048227;28;20052;-79
2022/10/20 06:39:21;;;;;;;0.00;0.00;;;15.50;97.30;;;;;;5054307;28;20021;-78
2022/10/20 06:41:51;;;;;;;0.00;0.00;;;15.80;96.80;;;;;;5033779;28;20024;-78
2022/10/20 06:44:21;;;;;;;0.00;0.00;;;15.70;97.10;;;;;;5029987;28;20108;-78
2022/10/20 06:46:51;;;;;;;0.00;0.00;;;16.00;96.00;;;;;;5054051;28;20074;-79
2022/10/20 06:49:24;;;;;;;0.00;0.00;;;16.10;95.80;;;;;;5048144;28;20155;-79
2022/10/20 06:52:02;;;;;;;0.17;0.05;;;16.70;94.20;;;;;;5036266;28;20638;-79
2022/10/20 06:54:29;;;;;;;0.00;0.00;;;17.50;92.80;;;;;;5047891;28;20507;-79
2022/10/20 06:56:59;;;;;;;0.30;0.30;;;17.80;92.10;;;;;;5038929;28;20057;-79
2022/10/20 06:59:29;;;;;;;0.00;0.00;;;17.70;91.00;;;;;;5048354;28;20755;-79
2022/10/20 07:01:56;;;;;;;0.00;0.00;;;17.60;90.60;;;;;;5046138;28;20064;-79
2022/10/20 07:04:23;;;;;;;0.20;0.20;;;17.10;91.40;;;;;;5054431;28;20028;-79
2022/10/20 07:06:56;;;;;;;0.00;0.00;;;16.80;91.30;;;;;;5050640;28;20021;-79
2022/10/20 07:09:21;;;;;;;0.00;0.00;;;16.80;91.10;;;;;;5041199;28;20041;-79
2022/10/20 07:11:51;;;;;;;0.03;0.03;;;17.20;91.00;;;;;;5046202;28;20635;-79
2022/10/20 07:14:18;;;;;;;0.00;0.00;;;17.30;90.60;;;;;;5050422;28;20262;-79
2022/10/20 07:16:44;;;;;;;0.00;0.00;;;17.20;90.50;;;;;;5044477;28;20028;-79
2022/10/20 07:19:10;;;;;;;0.35;0.35;;;17.60;90.30;;;;;;5055000;28;20493;-79
2022/10/20 07:21:37;;;;;;;0.10;0.10;;;18.60;88.20;;;;;;5053377;28;20104;-79
2022/10/20 07:24:05;;;;;;;0.00;0.00;;;18.80;85.90;;;;;;5054679;28;20070;-79
2022/10/20 07:26:37;;;;;;;0.00;0.00;;;19.00;84.80;;;;;;5057329;28;20024;-79
2022/10/20 07:29:10;;;;;;;0.00;0.00;;;19.40;83.10;;;;;;5050010;28;20024;-79
2022/10/20 07:31:43;;;;;;;0.00;0.00;;;20.30;79.80;;;;;;5053994;28;20377;-79
2022/10/20 07:34:16;;;;;;;0.00;0.00;;;20.80;78.80;;;;;;5045565;28;20079;-79
2022/10/20 07:36:48;;;;;;;0.00;0.00;;;21.20;76.00;;;;;;5034941;28;20759;-79
2022/10/20 07:39:16;;;;;;;0.22;0.22;;;20.40;77.30;;;;;;5026827;28;20097;-80
2022/10/20 07:41:46;;;;;;;0.00;0.00;;;19.60;77.90;;;;;;5044051;28;20028;-79
2022/10/20 07:44:13;;;;;;;0.00;0.00;;;19.60;78.50;;;;;;5047465;28;20028;-78
2022/10/20 07:46:39;;;;;;;0.00;0.00;;;19.50;78.70;;;;;;5051011;28;20027;-78
2022/10/20 07:49:11;;;;;;;0.00;0.00;;;19.10;79.40;;;;;;5047610;28;20925;-79
2022/10/20 07:51:37;;;;;;;0.00;0.00;;;19.80;79.30;;;;;;5048052;28;20050;-79
2022/10/20 07:54:08;;;;;;;0.10;0.10;;;20.00;77.40;;;;;;5042987;28;20714;-79
2022/10/20 07:56:37;;;;;;;0.20;0.17;;;20.00;76.30;;;;;;5055000;28;20016;-79
2022/10/20 07:59:03;;;;;;;0.00;0.00;;;20.20;75.10;;;;;;5046898;28;20077;-79
2022/10/20 08:01:35;;;;;;;0.00;0.00;;;20.20;75.70;;;;;;5044827;28;20025;-79
2022/10/20 08:04:00;;;;;;;0.00;0.00;;;20.60;74.70;;;;;;5046479;28;20058;-79
2022/10/20 08:06:31;;;;;;;0.00;0.00;;;21.10;73.20;;;;;;5051459;28;20088;-79
2022/10/20 08:08:58;;;;;;;0.05;0.00;;;21.10;73.40;;;;;;5047909;28;20110;-79
2022/10/20 08:11:26;;;;;;;0.00;0.00;;;21.10;71.70;;;;;;5047208;28;20124;-79
2022/10/20 08:13:53;;;;;;;0.32;0.32;;;20.50;72.10;;;;;;5044386;28;20029;-79
2022/10/20 08:16:20;;;;;;;0.52;0.35;;;20.70;73.30;;;;;;5048833;28;20041;-79
2022/10/20 08:18:46;;;;;;;0.20;0.20;;;21.10;72.40;;;;;;5039209;28;20068;-79
2022/10/20 08:21:27;;;;;;;0.00;0.00;;;21.70;70.20;;;;;;5031787;28;20035;-79
2022/10/20 08:23:57;;;;;;;0.00;0.00;;;21.40;70.90;;;;;;5045691;28;20051;-79
2022/10/20 08:26:25;;;;;;;0.10;0.10;;;21.20;71.00;;;;;;5047415;28;20082;-79
2022/10/20 08:28:54;;;;;;;0.00;0.00;;;20.90;70.30;;;;;;5043938;28;20021;-79
2022/10/20 08:31:21;;;;;;;0.22;0.22;;;21.20;71.60;;;;;;5045332;28;20020;-79
2022/10/20 08:33:54;;;;;;;0.00;0.00;;;20.60;70.30;;;;;;5031373;28;20028;-79
2022/10/20 08:36:21;;;;;;;0.00;0.00;;;19.80;71.30;;;;;;5050024;28;20021;-79
2022/10/20 08:38:48;;;;;;;0.00;0.00;;;19.70;72.60;;;;;;5044031;28;20492;-79
2022/10/20 08:41:18;;;;;;;0.00;0.00;;;20.40;71.30;;;;;;5047393;28;20386;-79
2022/10/20 08:43:50;;;;;;;0.00;0.00;;;20.90;70.60;;;;;;5026838;28;20692;-78
2022/10/20 08:46:28;;;;;;;0.10;0.10;;;21.00;69.30;;;;;;5026483;28;20027;-79
2022/10/20 08:48:56;;;;;;;0.00;0.00;;;20.70;70.30;;;;;;5049126;28;20111;-79
2022/10/20 08:51:30;;;;;;;0.03;0.03;;;21.80;68.70;;;;;;5040764;28;20028;-78
2022/10/20 08:54:10;;;;;;;0.00;0.00;;;21.40;69.00;;;;;;5049541;28;20475;-79
2022/10/20 08:56:38;;;;;;;0.00;0.00;;;22.60;67.60;;;;;;5048848;28;20499;-79
2022/10/20 08:59:28;;;;;;;0.00;0.00;;;23.60;64.10;;;;;;5046311;28;20013;-79
2022/10/20 09:01:55;;;;;;;2.75;0.38;;;23.20;64.60;;;;;;5048448;28;20041;-79
2022/10/20 09:04:32;;;;;;;0.00;0.00;;;21.30;67.00;;;;;;5026580;28;20689;-78
2022/10/20 09:07:33;;;;;;;0.00;0.00;;;20.80;68.40;;;;;;5043144;28;20060;-79
2022/10/20 09:10:21;;;;;;;0.03;0.03;;;19.30;71.30;;;;;;5033810;28;20063;-78
2022/10/20 09:12:48;;;;;;;0.00;0.00;;;19.10;71.50;;;;;;5038096;28;20022;-78
2022/10/20 09:15:17;;;;;;;0.22;0.22;;;20.10;70.10;;;;;;5049208;28;20035;-78
2022/10/20 09:17:58;;;;;;;0.00;0.00;;;20.30;69.90;;;;;;5045090;28;20107;-79
2022/10/20 09:20:57;;;;;;;0.30;0.30;;;20.90;68.70;;;;;;5046059;28;20029;-78
2022/10/20 09:23:33;;;;;;;0.00;0.00;;;20.50;69.30;;;;;;5033482;28;20021;-78
2022/10/20 09:26:02;;;;;;;0.00;0.00;;;20.50;69.60;;;;;;5044161;28;20028;-78
2022/10/20 09:28:29;;;;;;;0.00;0.00;;;20.40;70.50;;;;;;5041145;28;20059;-78
2022/10/20 09:30:58;;;;;;;0.00;0.00;;;21.80;68.20;;;;;;5038670;28;20122;-79
2022/10/20 09:33:34;;;;;;;0.45;0.22;;;22.70;66.70;;;;;;5044289;28;20017;-79
2022/10/20 09:36:11;;;;;;;0.00;0.00;;;24.90;63.60;;;;;;5050003;28;20047;-79
2022/10/20 09:38:46;;;;;;;0.00;0.00;;;25.90;61.70;;;;;;5043928;28;20016;-79
2022/10/20 09:41:22;;;;;;;0.00;0.00;;;24.90;61.30;;;;;;5042868;28;20025;-79
2022/10/20 09:43:53;;;;;;;0.00;0.00;;;24.70;61.00;;;;;;5039263;28;20024;-78
2022/10/20 09:46:48;;;;;;;0.00;0.00;;;23.10;63.10;;;;;;5042071;28;20017;-78
2022/10/20 09:49:31;;;;;;;0.50;0.38;;;23.30;63.20;;;;;;5045002;28;20090;-78
2022/10/20 09:51:59;;;;;;;0.10;0.10;;;23.40;62.30;;;;;;5038952;28;20021;-79
2022/10/20 09:54:27;;;;;;;0.00;0.00;;;23.50;62.60;;;;;;5045042;28;20166;-78
2022/10/20 09:57:06;;;;;;;0.00;0.00;;;22.50;62.90;;;;;;5051342;28;20366;-79
2022/10/20 09:59:39;;;;;;;0.00;0.00;;;23.00;62.70;;;;;;5043540;28;20024;-77
2022/10/20 10:02:20;;;;;;;0.00;0.00;;;22.40;63.60;;;;;;5043761;28;20025;-78
2022/10/20 10:04:48;;;;;;;0.00;0.00;;;20.40;66.20;;;;;;5044081;28;20021;-78
2022/10/20 10:07:26;;;;;;;0.00;0.00;;;20.30;67.10;;;;;;5025422;28;20643;-78
2022/10/20 10:10:03;;;;;;;0.00;0.00;;;19.60;67.80;;;;;;5039947;28;20053;-78
2022/10/20 10:12:30;;;;;;;0.00;0.00;;;20.00;68.30;;;;;;5029272;28;20028;-78
2022/10/20 10:15:02;;;;;;;0.00;0.00;;;20.60;67.80;;;;;;5027098;28;20032;-79
2022/10/20 10:17:37;;;;;;;0.00;0.00;;;21.60;65.50;;;;;;5047858;28;20029;-79
2022/10/20 10:20:06;;;;;;;0.22;0.22;;;22.50;64.20;;;;;;5049742;28;20396;-78
2022/10/20 10:22:35;;;;;;;0.65;0.30;;;21.60;64.40;;;;;;5045026;28;20323;-78
2022/10/20 10:25:03;;;;;;;0.00;0.00;;;19.40;68.30;;;;;;5047016;28;20017;-78
2022/10/20 10:27:33;;;;;;;0.00;0.00;;;18.90;70.10;;;;;;5029815;28;20017;-78
2022/10/20 10:30:27;;;;;;;0.22;0.00;;;19.70;69.70;;;;;;5051332;28;20028;-79
2022/10/20 10:32:59;;;;;;;0.03;0.03;;;19.80;69.10;;;;;;5047164;28;20053;-78
2022/10/20 10:35:27;;;;;;;0.00;0.00;;;20.30;68.20;;;;;;5027726;28;20045;-79
2022/10/20 10:37:57;;;;;;;0.00;0.00;;;21.50;66.80;;;;;;5046755;28;20025;-78
2022/10/20 10:40:35;;;;;;;1.80;0.28;;;22.50;65.60;;;;;;5039253;28;20040;-78
2022/10/20 10:43:28;;;;;;;0.00;0.00;;;21.30;65.60;;;;;;5048125;28;20013;-78
2022/10/20 10:46:04;;;;;;;0.00;0.00;;;19.40;69.90;;;;;;5036350;28;20029;-78
2022/10/20 10:49:09;;;;;;;0.03;0.03;;;18.00;72.30;;;;;;5045141;28;20025;-78
2022/10/20 10:51:41;;;;;;;0.00;0.00;;;17.10;74.80;;;;;;5046452;28;20028;-78
2022/10/20 10:54:31;;;;;;;0.00;0.00;;;16.60;76.90;;;;;;5044876;28;20051;-80
2022/10/20 10:57:19;;;;;;;0.00;0.00;;;15.60;79.70;;;;;;5048353;28;20025;-78
2022/10/20 10:59:48;;;;;;;0.00;0.00;;;15.70;80.90;;;;;;5045987;28;20031;-78
2022/10/20 11:02:27;;;;;;;0.00;0.00;;;15.70;81.30;;;;;;5055837;28;20425;-78
2022/10/20 11:05:11;;;;;;;0.00;0.00;;;15.50;81.30;;;;;;5047199;28;20066;-78
2022/10/20 11:08:17;;;;;;;0.22;0.20;;;15.40;83.40;;;;;;5049981;28;20013;-78
2022/10/20 11:11:16;;;;;;;0.05;0.05;;;15.70;82.80;;;;;;5051381;28;20021;-78
2022/10/20 11:13:53;;;;;;;0.10;0.10;;;15.60;82.90;;;;;;5046715;28;20020;-79
2022/10/20 11:16:21;;;;;;;0.00;0.00;;;15.80;83.20;;;;;;5052473;28;20153;-79
2022/10/20 11:19:16;;;;;;;0.00;0.00;;;15.90;82.40;;;;;;5044518;28;20070;-78
2022/10/20 11:21:50;;;;;;;0.00;0.00;;;15.80;82.80;;;;;;5045354;28;20095;-79
2022/10/20 11:24:36;;;;;;;0.00;0.00;;;15.70;83.50;;;;;;5045858;28;20092;-79
2022/10/20 11:27:18;;;;;;;0.00;0.00;;;15.90;83.80;;;;;;5049236;28;20024;-79
2022/10/20 11:29:43;;;;;;;0.00;0.00;;;16.00;83.20;;;;;;5043601;28;20500;-79
2022/10/20 11:32:25;;;;;;;0.00;0.00;;;16.20;83.60;;;;;;5047446;28;20017;-78
2022/10/20 11:35:13;;;;;;;0.13;0.13;;;16.40;83.10;;;;;;5027279;28;20143;-79
2022/10/20 11:37:53;;;;;;;0.00;0.00;;;16.60;82.20;;;;;;5055302;28;20025;-79
2022/10/20 11:40:23;;;;;;;0.00;0.00;;;16.40;82.70;;;;;;5043132;28;20044;-79
2022/10/20 11:43:22;;;;;;;0.00;0.00;;;16.20;83.10;;;;;;5044408;28;20099;-79
2022/10/20 11:45:47;;;;;;;0.15;0.10;;;15.90;83.70;;;;;;5046893;28;20044;-78
2022/10/20 11:48:32;;;;;;;0.00;0.00;;;15.90;85.00;;;;;;5048589;28;20067;-79
2022/10/20 11:51:29;;;;;;;0.00;0.00;;;15.90;84.40;;;;;;5045352;28;20025;-79
2022/10/20 11:54:34;;;;;;;0.05;0.03;;;16.00;85.80;;;;;;5047718;28;20025;-79
2022/10/20 11:57:27;;;;;;;0.00;0.00;;;16.00;85.40;;;;;;5036618;28;20087;-79
2022/10/20 12:00:22;;;;;;;0.40;0.30;;;15.90;85.80;;;;;;5041531;28;21506;-78
2022/10/20 12:03:08;;;;;;;0.00;0.00;;;16.00;86.30;;;;;;5043079;28;20032;-79
2022/10/20 12:06:12;;;;;;;0.00;0.00;;;16.00;86.10;;;;;;5049559;28;20063;-78
2022/10/20 12:08:50;;;;;;;0.00;0.00;;;16.10;86.10;;;;;;5045932;28;20024;-78
2022/10/20 12:11:45;;;;;;;0.45;0.38;;;16.00;86.20;;;;;;5053681;28;20107;-78
2022/10/20 12:14:13;;;;;;;0.00;0.00;;;15.80;87.50;;;;;;5019570;28;20033;-78
2022/10/20 12:17:25;;;;;;;0.00;0.00;;;15.80;87.60;;;;;;5043975;28;20028;-78
2022/10/20 12:20:19;;;;;;;0.00;0.00;;;15.60;88.60;;;;;;5042940;28;20090;-79
2022/10/20 12:23:00;;;;;;;0.22;0.22;;;15.30;89.70;;;;;;5049964;28;20020;-78
2022/10/20 12:25:28;;;;;;;0.00;0.00;;;15.50;89.80;;;;;;5047733;28;20082;-79
2022/10/20 12:28:31;;;;;;;0.22;0.22;;;15.60;89.30;;;;;;5045492;28;20064;-80
2022/10/20 12:31:00;;;;;;;0.00;0.00;;;15.50;89.40;;;;;;5052637;28;20028;-79
2022/10/20 12:33:50;;;;;;;0.00;0.00;;;15.50;90.10;;;;;;5039886;28;20448;-79
2022/10/20 12:36:32;;;;;;;0.00;0.00;;;15.40;90.40;;;;;;5043269;28;20025;-79
2022/10/20 12:39:19;;;;;;;0.00;0.00;;;15.30;90.60;;;;;;5031481;28;20780;-78
2022/10/20 12:41:57;;;;;;;0.00;0.00;;;15.30;90.70;;;;;;5051686;28;20552;-78
2022/10/20 12:44:27;;;;;;;0.00;0.00;;;15.40;90.90;;;;;;5043286;28;20033;-78
2022/10/20 12:47:05;;;;;;;0.00;0.00;;;15.50;90.60;;;;;;5032831;28;20056;-78
2022/10/20 12:49:33;;;;;;;;;;;15.60;91.00;;;;;;5041746;28;20027;-78
2022/10/20 12:52:01;;;;;;;0.00;0.00;;;15.60;90.90;;;;;;5046299;28;20001;-79
2022/10/20 12:54:33;;;;;;;0.00;0.00;;;15.30;91.50;;;;;;5039621;28;20021;-79
2022/10/20 12:57:25;;;;;;;0.00;0.00;;;15.40;91.60;;;;;;5034079;28;20071;-78
2022/10/20 12:59:52;;;;;;;0.13;0.13;;;15.30;91.40;;;;;;5048914;28;20027;-78
2022/10/20 13:02:30;;;;;;;0.00;0.00;;;15.30;91.70;;;;;;5025010;28;20493;-78
2022/10/20 13:05:01;;;;;;;0.00;0.00;;;15.20;91.90;;;;;;5052497;28;20486;-78
2022/10/20 13:07:45;;;;;;;0.00;0.00;;;15.10;92.20;;;;;;5042225;28;20052;-80
2022/10/20 13:10:31;;;;;;;1.25;0.95;;;15.10;92.10;;;;;;5044853;28;20097;-78
2022/10/20 13:13:02;;;;;;;0.00;0.00;;;15.00;92.50;;;;;;5039897;28;20110;-77
2022/10/20 13:15:37;;;;;;;0.00;0.00;;;15.00;92.50;;;;;;5051314;28;20029;-79
2022/10/20 13:18:18;;;;;;;0.22;0.22;;;15.10;93.00;;;;;;5050239;28;20108;-78
2022/10/20 13:21:22;;;;;;;0.00;0.00;;;15.20;92.90;;;;;;5038240;28;20035;-79
2022/10/20 13:24:23;;;;;;;0.00;0.00;;;15.10;92.60;;;;;;5039081;28;20108;-79
2022/10/20 13:26:55;;;;;;;0.00;0.00;;;15.20;92.90;;;;;;5041465;28;20029;-79
2022/10/20 13:29:28;;;;;;;0.03;0.03;;;15.20;92.80;;;;;;5034611;28;20420;-79